Terminal Aerodrome Forecast
Issued by NWS

Home | Current Version | Previous Version | Graphics & Text | Print | Product List | Glossary On
Versions: 1 2 3 4 5 6 7 8 9 10 11 12 13 14 15 16 17 18 19 20 21
000
FTUS43 KMPX 171739
TAFRWF
TAF
KRWF 171739Z 1718/1818 19004KT P6SM OVC080
     FM172000 34005KT P6SM VCSH OVC130
     FM172100 34004KT P6SM OVC100
     FM180000 34008KT P6SM BKN060
     FM180200 34007KT P6SM OVC035
     FM180600 33010KT P6SM OVC050
     FM181300 32010KT P6SM SCT200=

USA.gov is the U.S. government's official web portal to all federal, state and local government web resources and services.